Swazik — WDF7025 — position and weather

sailwx.info

Track history (hours):
 
Tides and Currents Weather Stations Pressure Air Temp Water Temp Dewpoint Dewpoint Depression Visibility Wind Speed Wind Dir Waves Ship Positions

Swazik

Owner: de Halleux, Sebastien, San Francisco, CA. More information available from US FCC via Universal Licensing System and Coast Guard Vessel Documentation Center.

Last reported at 2017-Dec-30 00:25 UTC. Time now 2018-Jan-22 13:52 UTC.
Position N 37°52' W 122°29'.
Warning: this ship's position is 23 days out of date.

Length 14 m.

Type: Sailing vessel. MMSI: 367480320.

Date/timePositionNaut miles runAvg speedWind from/ knotsBaromVisibWave heightAir tempDewpointWater temp
2017-Dec-30 00:25N 37°52' W 122°29'1 3.2
2017-Dec-30 00:00N 37°51' W 122°28'3 5.1
2017-Dec-29 23:28N 37°49' W 122°30'3 5.6
2017-Dec-29 23:00N 37°48' W 122°33'2 3.7
2017-Dec-29 22:30N 37°47' W 122°33'11 5.3
2017-Dec-29 20:22N 37°35' W 122°34'2 5.1
2017-Dec-29 20:00N 37°34' W 122°34'1 1.7
2017-Dec-29 19:30N 37°33' W 122°35'2 3.2
2017-Dec-29 19:00N 37°31' W 122°35'2 3.3
2017-Dec-29 18:30N 37°29' W 122°35'3 5.0
2017-Dec-29 18:00N 37°29' W 122°32'2 4.6
2017-Dec-29 17:30N 37°29' W 122°29'1 1.4
2017-Dec-29 16:58N 37°30' W 122°29'0 0.1
2017-Dec-29 16:28N 37°30' W 122°29'0 0.1
2017-Dec-29 15:55N 37°30' W 122°29'0 0.0
2017-Dec-29 15:25N 37°30' W 122°29'0 0.0
2017-Dec-29 14:55N 37°30' W 122°29'0 0.1
2017-Dec-29 14:28N 37°30' W 122°29'0 0.1
2017-Dec-29 13:55N 37°30' W 122°29'0 0.0
2017-Dec-29 13:28N 37°30' W 122°29'0 0.0
2017-Dec-29 12:55N 37°30' W 122°29'0 0.0
2017-Dec-29 12:25N 37°30' W 122°29'0 0.0
2017-Dec-29 11:55N 37°30' W 122°29'0 0.0
2017-Dec-29 11:25N 37°30' W 122°29'0 0.0
2017-Dec-29 10:58N 37°30' W 122°29'0 0.1
2017-Dec-29 10:25N 37°30' W 122°29'0 0.1
2017-Dec-29 09:58N 37°30' W 122°29'0 0.0
2017-Dec-29 09:25N 37°30' W 122°29'0 0.0
2017-Dec-29 08:55N 37°30' W 122°29'0 0.0
2017-Dec-29 08:28N 37°30' W 122°29'0 0.0
2017-Dec-29 07:55N 37°30' W 122°29'0 0.1
2017-Dec-29 07:25N 37°30' W 122°29'0 0.1
2017-Dec-29 06:58N 37°30' W 122°29'0 0.0
2017-Dec-29 06:29N 37°30' W 122°29'0 0.0
2017-Dec-29 05:59N 37°30' W 122°29'0 0.0
2017-Dec-29 05:25N 37°30' W 122°29'0 0.1
2017-Dec-29 04:58N 37°30' W 122°29'0 0.0
2017-Dec-29 04:29N 37°30' W 122°29'0 0.1
2017-Dec-29 03:55N 37°30' W 122°29'0 0.0
2017-Dec-29 03:29N 37°30' W 122°29'0 0.1
2017-Dec-29 02:55N 37°30' W 122°29'0 0.1
2017-Dec-29 02:29N 37°30' W 122°29'0 0.1
2017-Dec-29 01:56N 37°30' W 122°29'0 0.1
2017-Dec-29 01:25N 37°30' W 122°29'0 0.0
2017-Dec-29 00:59N 37°30' W 122°29'0 0.0
2017-Dec-29 00:28N 37°30' W 122°29'0 0.2
2017-Dec-29 00:00N 37°30' W 122°29'1 2.9
2017-Dec-28 23:30N 37°29' W 122°30'4 7.4
2017-Dec-28 23:00N 37°30' W 122°35'4 7.1
2017-Dec-28 22:28N 37°32' W 122°39'15 6.3
2017-Dec-28 20:09N 37°46' W 122°34'1 7.5
2017-Dec-28 20:00N 37°47' W 122°34'4 8.5
2017-Dec-28 19:30N 37°49' W 122°29'3 4.9
2017-Dec-28 18:59N 37°52' W 122°29'  
2017-Dec-26 00:07N 37°52' W 122°29'0 3.2
2017-Dec-25 23:59N 37°52' W 122°29'2 3.3
2017-Dec-25 23:30N 37°51' W 122°27'3 5.9
2017-Dec-25 23:00N 37°50' W 122°23'3 5.0
2017-Dec-25 22:29N 37°47' W 122°23'1 2.1
2017-Dec-25 22:00N 37°48' W 122°23'3 5.8
2017-Dec-25 21:30N 37°50' W 122°26'3 5.0
2017-Dec-25 21:00N 37°52' W 122°29'  
Track history (hours):
 
Tides and Currents Weather Stations Pressure Air Temp Water Temp Dewpoint Dewpoint Depression Visibility Wind Speed Wind Dir Waves Ship Positions

Swazik

Owner: de Halleux, Sebastien, San Francisco, CA. More information available from US FCC via Universal Licensing System and Coast Guard Vessel Documentation Center.

Last reported at 2017-Dec-30 00:25 UTC. Time now 2018-Jan-22 13:52 UTC.
Position N 37°52' W 122°29'.
Warning: this ship's position is 23 days out of date.

Length 14 m.

Type: Sailing vessel. MMSI: 367480320.

Date/timePositionNaut miles runAvg speedWind from/ knotsBaromVisibWave heightAir tempDewpointWater temp
2017-Dec-30 00:25N 37°52' W 122°29'1 3.2
2017-Dec-30 00:00N 37°51' W 122°28'3 5.1
2017-Dec-29 23:28N 37°49' W 122°30'3 5.6
2017-Dec-29 23:00N 37°48' W 122°33'2 3.7
2017-Dec-29 22:30N 37°47' W 122°33'11 5.3
2017-Dec-29 20:22N 37°35' W 122°34'2 5.1
2017-Dec-29 20:00N 37°34' W 122°34'1 1.7
2017-Dec-29 19:30N 37°33' W 122°35'2 3.2
2017-Dec-29 19:00N 37°31' W 122°35'2 3.3
2017-Dec-29 18:30N 37°29' W 122°35'3 5.0
2017-Dec-29 18:00N 37°29' W 122°32'2 4.6
2017-Dec-29 17:30N 37°29' W 122°29'1 1.4
2017-Dec-29 16:58N 37°30' W 122°29'0 0.1
2017-Dec-29 16:28N 37°30' W 122°29'0 0.1
2017-Dec-29 15:55N 37°30' W 122°29'0 0.0
2017-Dec-29 15:25N 37°30' W 122°29'0 0.0
2017-Dec-29 14:55N 37°30' W 122°29'0 0.1
2017-Dec-29 14:28N 37°30' W 122°29'0 0.1
2017-Dec-29 13:55N 37°30' W 122°29'0 0.0
2017-Dec-29 13:28N 37°30' W 122°29'0 0.0
2017-Dec-29 12:55N 37°30' W 122°29'0 0.0
2017-Dec-29 12:25N 37°30' W 122°29'0 0.0
2017-Dec-29 11:55N 37°30' W 122°29'0 0.0
2017-Dec-29 11:25N 37°30' W 122°29'0 0.0
2017-Dec-29 10:58N 37°30' W 122°29'0 0.1
2017-Dec-29 10:25N 37°30' W 122°29'0 0.1
2017-Dec-29 09:58N 37°30' W 122°29'0 0.0
2017-Dec-29 09:25N 37°30' W 122°29'0 0.0
2017-Dec-29 08:55N 37°30' W 122°29'0 0.0
2017-Dec-29 08:28N 37°30' W 122°29'0 0.0
2017-Dec-29 07:55N 37°30' W 122°29'0 0.1
2017-Dec-29 07:25N 37°30' W 122°29'0 0.1
2017-Dec-29 06:58N 37°30' W 122°29'0 0.0
2017-Dec-29 06:29N 37°30' W 122°29'0 0.0
2017-Dec-29 05:59N 37°30' W 122°29'0 0.0
2017-Dec-29 05:25N 37°30' W 122°29'0 0.1
2017-Dec-29 04:58N 37°30' W 122°29'0 0.0
2017-Dec-29 04:29N 37°30' W 122°29'0 0.1
2017-Dec-29 03:55N 37°30' W 122°29'0 0.0
2017-Dec-29 03:29N 37°30' W 122°29'0 0.1
2017-Dec-29 02:55N 37°30' W 122°29'0 0.1
2017-Dec-29 02:29N 37°30' W 122°29'0 0.1
2017-Dec-29 01:56N 37°30' W 122°29'0 0.1
2017-Dec-29 01:25N 37°30' W 122°29'0 0.0
2017-Dec-29 00:59N 37°30' W 122°29'0 0.0
2017-Dec-29 00:28N 37°30' W 122°29'0 0.2
2017-Dec-29 00:00N 37°30' W 122°29'1 2.9
2017-Dec-28 23:30N 37°29' W 122°30'4 7.4
2017-Dec-28 23:00N 37°30' W 122°35'4 7.1
2017-Dec-28 22:28N 37°32' W 122°39'15 6.3
2017-Dec-28 20:09N 37°46' W 122°34'1 7.5
2017-Dec-28 20:00N 37°47' W 122°34'4 8.5
2017-Dec-28 19:30N 37°49' W 122°29'3 4.9
2017-Dec-28 18:59N 37°52' W 122°29'  
2017-Dec-26 00:07N 37°52' W 122°29'0 3.2
2017-Dec-25 23:59N 37°52' W 122°29'2 3.3
2017-Dec-25 23:30N 37°51' W 122°27'3 5.9
2017-Dec-25 23:00N 37°50' W 122°23'3 5.0
2017-Dec-25 22:29N 37°47' W 122°23'1 2.1
2017-Dec-25 22:00N 37°48' W 122°23'3 5.8
2017-Dec-25 21:30N 37°50' W 122°26'3 5.0
2017-Dec-25 21:00N 37°52' W 122°29'  

Dump ship's entire track history